sensor_id;sensor_type;location;lat;lon;timestamp;pressure;altitude;pressure_sealevel;temperature;humidity
7200;BME280;3641;49.082;8.200;2023-04-20T00:00:19;100435.94;;;6.80;59.04
7200;BME280;3641;49.082;8.200;2023-04-20T00:02:46;100437.47;;;6.57;60.64
7200;BME280;3641;49.082;8.200;2023-04-20T00:05:14;100441.31;;;6.54;60.85
7200;BME280;3641;49.082;8.200;2023-04-20T00:07:40;100428.94;;;6.51;60.92
7200;BME280;3641;49.082;8.200;2023-04-20T00:10:07;100426.50;;;6.40;60.73
7200;BME280;3641;49.082;8.200;2023-04-20T00:12:34;100415.75;;;6.57;60.37
7200;BME280;3641;49.082;8.200;2023-04-20T00:15:01;100410.56;;;6.63;59.88
7200;BME280;3641;49.082;8.200;2023-04-20T00:17:27;100409.03;;;6.61;60.01
7200;BME280;3641;49.082;8.200;2023-04-20T00:19:54;100405.25;;;6.35;60.68
7200;BME280;3641;49.082;8.200;2023-04-20T00:22:22;100405.13;;;6.19;61.02
7200;BME280;3641;49.082;8.200;2023-04-20T00:24:49;100395.59;;;6.15;61.13
7200;BME280;3641;49.082;8.200;2023-04-20T00:27:16;100397.69;;;6.21;60.76
7200;BME280;3641;49.082;8.200;2023-04-20T00:29:43;100393.31;;;6.28;60.85
7200;BME280;3641;49.082;8.200;2023-04-20T00:32:09;100390.06;;;6.43;60.81
7200;BME280;3641;49.082;8.200;2023-04-20T00:34:36;100385.00;;;6.04;62.43
7200;BME280;3641;49.082;8.200;2023-04-20T00:37:02;100377.78;;;6.30;61.88
7200;BME280;3641;49.082;8.200;2023-04-20T00:39:30;100383.81;;;6.24;62.18
7200;BME280;3641;49.082;8.200;2023-04-20T00:42:03;100386.22;;;6.27;61.95
7200;BME280;3641;49.082;8.200;2023-04-20T00:44:29;100376.22;;;6.28;61.90
7200;BME280;3641;49.082;8.200;2023-04-20T00:46:56;100379.63;;;6.30;62.87
7200;BME280;3641;49.082;8.200;2023-04-20T00:49:23;100373.97;;;6.23;62.22
7200;BME280;3641;49.082;8.200;2023-04-20T00:51:51;100367.81;;;6.13;64.29
7200;BME280;3641;49.082;8.200;2023-04-20T00:54:18;100365.88;;;6.05;64.75
7200;BME280;3641;49.082;8.200;2023-04-20T00:56:46;100361.03;;;6.17;63.02
7200;BME280;3641;49.082;8.200;2023-04-20T00:59:13;100358.78;;;5.94;65.22
7200;BME280;3641;49.082;8.200;2023-04-20T01:01:40;100353.47;;;6.03;64.40
7200;BME280;3641;49.082;8.200;2023-04-20T01:04:07;100355.22;;;5.76;66.65
7200;BME280;3641;49.082;8.200;2023-04-20T01:06:34;100351.28;;;5.88;65.87
7200;BME280;3641;49.082;8.200;2023-04-20T01:09:01;100342.63;;;5.67;66.25
7200;BME280;3641;49.082;8.200;2023-04-20T01:11:27;100337.97;;;5.95;63.77
7200;BME280;3641;49.082;8.200;2023-04-20T01:13:55;100337.84;;;5.96;63.96
7200;BME280;3641;49.082;8.200;2023-04-20T01:16:21;100332.31;;;6.06;63.12
7200;BME280;3641;49.082;8.200;2023-04-20T01:18:49;100335.25;;;5.95;63.54
7200;BME280;3641;49.082;8.200;2023-04-20T01:21:18;100332.31;;;5.88;63.40
7200;BME280;3641;49.082;8.200;2023-04-20T01:23:47;100327.38;;;5.66;65.18
7200;BME280;3641;49.082;8.200;2023-04-20T01:26:16;100322.88;;;5.74;64.38
7200;BME280;3641;49.082;8.200;2023-04-20T01:28:44;100321.78;;;5.49;65.44
7200;BME280;3641;49.082;8.200;2023-04-20T01:31:11;100317.59;;;5.55;64.73
7200;BME280;3641;49.082;8.200;2023-04-20T01:33:38;100318.41;;;5.65;64.33
7200;BME280;3641;49.082;8.200;2023-04-20T01:36:06;100310.66;;;5.70;64.37
7200;BME280;3641;49.082;8.200;2023-04-20T01:38:33;100306.22;;;5.51;64.67
7200;BME280;3641;49.082;8.200;2023-04-20T01:41:02;100305.69;;;5.48;65.25
7200;BME280;3641;49.082;8.200;2023-04-20T01:43:30;100297.34;;;5.77;63.54
7200;BME280;3641;49.082;8.200;2023-04-20T01:45:58;100302.53;;;5.70;63.68
7200;BME280;3641;49.082;8.200;2023-04-20T01:48:24;100298.72;;;5.45;65.03
7200;BME280;3641;49.082;8.200;2023-04-20T01:50:51;100298.41;;;5.48;64.81
7200;BME280;3641;49.082;8.200;2023-04-20T01:53:18;100298.56;;;5.46;65.34
7200;BME280;3641;49.082;8.200;2023-04-20T01:55:45;100291.06;;;5.40;65.75
7200;BME280;3641;49.082;8.200;2023-04-20T01:58:13;100290.22;;;5.40;64.23
7200;BME280;3641;49.082;8.200;2023-04-20T02:00:39;100290.06;;;5.41;64.04
7200;BME280;3641;49.082;8.200;2023-04-20T02:03:06;100288.50;;;5.21;64.77
7200;BME280;3641;49.082;8.200;2023-04-20T02:05:33;100283.81;;;5.13;65.45
7200;BME280;3641;49.082;8.200;2023-04-20T02:07:59;100284.13;;;5.38;64.90
7200;BME280;3641;49.082;8.200;2023-04-20T02:10:26;100288.03;;;5.25;65.95
7200;BME280;3641;49.082;8.200;2023-04-20T02:12:52;100284.03;;;5.48;64.81
7200;BME280;3641;49.082;8.200;2023-04-20T02:15:20;100284.41;;;5.35;64.96
7200;BME280;3641;49.082;8.200;2023-04-20T02:17:47;100275.13;;;5.37;63.94
7200;BME280;3641;49.082;8.200;2023-04-20T02:20:16;100278.44;;;5.31;64.75
7200;BME280;3641;49.082;8.200;2023-04-20T02:22:43;100273.03;;;5.31;64.46
7200;BME280;3641;49.082;8.200;2023-04-20T02:25:10;100278.53;;;4.94;66.29
7200;BME280;3641;49.082;8.200;2023-04-20T02:27:37;100270.16;;;5.15;65.84
7200;BME280;3641;49.082;8.200;2023-04-20T02:30:04;100271.13;;;5.41;64.36
7200;BME280;3641;49.082;8.200;2023-04-20T02:32:32;100269.63;;;5.29;64.35
7200;BME280;3641;49.082;8.200;2023-04-20T02:34:59;100266.91;;;5.29;63.71
7200;BME280;3641;49.082;8.200;2023-04-20T02:37:26;100254.78;;;5.33;64.52
7200;BME280;3641;49.082;8.200;2023-04-20T02:39:52;100254.53;;;5.08;64.54
7200;BME280;3641;49.082;8.200;2023-04-20T02:42:19;100252.63;;;5.19;63.54
7200;BME280;3641;49.082;8.200;2023-04-20T02:44:45;100255.19;;;5.20;63.65
7200;BME280;3641;49.082;8.200;2023-04-20T02:47:12;100244.03;;;5.23;63.67
7200;BME280;3641;49.082;8.200;2023-04-20T02:49:39;100241.94;;;5.35;63.30
7200;BME280;3641;49.082;8.200;2023-04-20T02:52:06;100239.25;;;5.17;63.47
7200;BME280;3641;49.082;8.200;2023-04-20T02:54:32;100231.97;;;5.18;64.21
7200;BME280;3641;49.082;8.200;2023-04-20T02:56:59;100243.25;;;5.31;63.87
7200;BME280;3641;49.082;8.200;2023-04-20T02:59:25;100240.41;;;5.51;62.02
7200;BME280;3641;49.082;8.200;2023-04-20T03:01:52;100234.00;;;5.34;62.75
7200;BME280;3641;49.082;8.200;2023-04-20T03:04:18;100229.56;;;5.33;62.73
7200;BME280;3641;49.082;8.200;2023-04-20T03:06:48;100225.94;;;5.42;62.60
7200;BME280;3641;49.082;8.200;2023-04-20T03:09:15;100238.94;;;5.38;63.24
7200;BME280;3641;49.082;8.200;2023-04-20T03:11:42;100235.34;;;5.20;63.33
7200;BME280;3641;49.082;8.200;2023-04-20T03:14:09;100238.72;;;5.32;63.16
7200;BME280;3641;49.082;8.200;2023-04-20T03:16:36;100226.84;;;5.33;63.39
7200;BME280;3641;49.082;8.200;2023-04-20T03:19:02;100234.22;;;5.40;63.16
7200;BME280;3641;49.082;8.200;2023-04-20T03:21:28;100219.16;;;5.38;62.65
7200;BME280;3641;49.082;8.200;2023-04-20T03:23:56;100221.28;;;5.34;63.12
7200;BME280;3641;49.082;8.200;2023-04-20T03:26:23;100218.28;;;5.19;63.74
7200;BME280;3641;49.082;8.200;2023-04-20T03:28:50;100219.44;;;5.17;63.48
7200;BME280;3641;49.082;8.200;2023-04-20T03:31:16;100218.72;;;4.97;63.92
7200;BME280;3641;49.082;8.200;2023-04-20T03:33:43;100221.03;;;4.91;64.73
7200;BME280;3641;49.082;8.200;2023-04-20T03:36:10;100215.34;;;4.67;65.04
7200;BME280;3641;49.082;8.200;2023-04-20T03:38:37;100218.34;;;4.91;65.21
7200;BME280;3641;49.082;8.200;2023-04-20T03:41:05;100216.09;;;5.05;64.24
7200;BME280;3641;49.082;8.200;2023-04-20T03:43:32;100206.19;;;4.96;64.01
7200;BME280;3641;49.082;8.200;2023-04-20T03:45:58;100205.19;;;4.79;64.76
7200;BME280;3641;49.082;8.200;2023-04-20T03:48:25;100203.22;;;4.71;66.30
7200;BME280;3641;49.082;8.200;2023-04-20T03:50:52;100197.41;;;5.12;63.51
7200;BME280;3641;49.082;8.200;2023-04-20T03:53:18;100196.41;;;4.95;64.46
7200;BME280;3641;49.082;8.200;2023-04-20T03:55:45;100192.53;;;4.97;64.55
7200;BME280;3641;49.082;8.200;2023-04-20T03:58:12;100189.44;;;4.92;66.05
7200;BME280;3641;49.082;8.200;2023-04-20T04:00:39;100200.56;;;5.07;63.56
7200;BME280;3641;49.082;8.200;2023-04-20T04:03:06;100198.19;;;5.22;65.26
7200;BME280;3641;49.082;8.200;2023-04-20T04:05:32;100187.50;;;5.38;63.29
7200;BME280;3641;49.082;8.200;2023-04-20T04:07:59;100192.63;;;5.41;63.04
7200;BME280;3641;49.082;8.200;2023-04-20T04:10:25;100192.78;;;5.22;65.97
7200;BME280;3641;49.082;8.200;2023-04-20T04:12:52;100200.50;;;5.35;63.68
7200;BME280;3641;49.082;8.200;2023-04-20T04:15:20;100199.88;;;5.23;65.34
7200;BME280;3641;49.082;8.200;2023-04-20T04:17:46;100198.97;;;5.32;64.66
7200;BME280;3641;49.082;8.200;2023-04-20T04:20:13;100202.81;;;5.30;64.15
7200;BME280;3641;49.082;8.200;2023-04-20T04:22:40;100204.97;;;5.26;65.33
7200;BME280;3641;49.082;8.200;2023-04-20T04:25:07;100198.66;;;5.35;63.85
7200;BME280;3641;49.082;8.200;2023-04-20T04:27:34;100205.78;;;5.36;64.28
7200;BME280;3641;49.082;8.200;2023-04-20T04:30:02;100197.34;;;5.39;63.59
7200;BME280;3641;49.082;8.200;2023-04-20T04:32:30;100196.09;;;5.34;64.36
7200;BME280;3641;49.082;8.200;2023-04-20T04:34:58;100192.31;;;5.26;64.93
7200;BME280;3641;49.082;8.200;2023-04-20T04:37:25;100200.75;;;5.23;65.69
7200;BME280;3641;49.082;8.200;2023-04-20T04:39:52;100188.22;;;5.04;67.07
7200;BME280;3641;49.082;8.200;2023-04-20T04:42:18;100188.75;;;4.90;68.03
7200;BME280;3641;49.082;8.200;2023-04-20T04:44:45;100184.72;;;4.94;67.61
7200;BME280;3641;49.082;8.200;2023-04-20T04:47:12;100187.41;;;5.12;66.36
7200;BME280;3641;49.082;8.200;2023-04-20T04:49:40;100184.88;;;5.28;65.28
7200;BME280;3641;49.082;8.200;2023-04-20T04:52:07;100179.69;;;5.35;65.16
7200;BME280;3641;49.082;8.200;2023-04-20T04:54:34;100176.44;;;5.50;65.80
7200;BME280;3641;49.082;8.200;2023-04-20T04:57:00;100180.38;;;5.55;64.42
7200;BME280;3641;49.082;8.200;2023-04-20T04:59:26;100183.03;;;5.29;66.46
7200;BME280;3641;49.082;8.200;2023-04-20T05:01:53;100187.81;;;5.35;65.23
7200;BME280;3641;49.082;8.200;2023-04-20T05:04:19;100182.44;;;5.61;64.10
7200;BME280;3641;49.082;8.200;2023-04-20T05:06:47;100185.41;;;5.50;64.86
7200;BME280;3641;49.082;8.200;2023-04-20T05:09:14;100189.28;;;5.48;65.54
7200;BME280;3641;49.082;8.200;2023-04-20T05:11:40;100188.00;;;5.60;64.26
7200;BME280;3641;49.082;8.200;2023-04-20T05:14:06;100185.56;;;5.67;64.63
7200;BME280;3641;49.082;8.200;2023-04-20T05:16:33;100184.47;;;5.59;64.33
7200;BME280;3641;49.082;8.200;2023-04-20T05:18:59;100193.38;;;5.52;66.51
7200;BME280;3641;49.082;8.200;2023-04-20T05:21:26;100194.56;;;5.49;65.60
7200;BME280;3641;49.082;8.200;2023-04-20T05:23:54;100191.81;;;5.67;64.10
7200;BME280;3641;49.082;8.200;2023-04-20T05:26:20;100191.44;;;5.62;65.54
7200;BME280;3641;49.082;8.200;2023-04-20T05:28:47;100193.28;;;5.61;64.95
7200;BME280;3641;49.082;8.200;2023-04-20T05:31:13;100200.56;;;5.61;65.28
7200;BME280;3641;49.082;8.200;2023-04-20T05:33:40;100206.31;;;5.40;66.72
7200;BME280;3641;49.082;8.200;2023-04-20T05:36:07;100206.34;;;5.66;65.08
7200;BME280;3641;49.082;8.200;2023-04-20T05:38:34;100203.94;;;5.81;65.49
7200;BME280;3641;49.082;8.200;2023-04-20T05:41:02;100203.63;;;5.84;64.55
7200;BME280;3641;49.082;8.200;2023-04-20T05:43:28;100208.16;;;5.83;66.01
7200;BME280;3641;49.082;8.200;2023-04-20T05:45:55;100216.28;;;5.83;65.43
7200;BME280;3641;49.082;8.200;2023-04-20T05:48:21;100220.09;;;5.91;65.11
7200;BME280;3641;49.082;8.200;2023-04-20T05:50:48;100214.78;;;7.27;61.45
7200;BME280;3641;49.082;8.200;2023-04-20T05:53:14;100219.22;;;7.53;61.20
7200;BME280;3641;49.082;8.200;2023-04-20T05:55:41;100209.72;;;7.57;60.47
7200;BME280;3641;49.082;8.200;2023-04-20T05:58:08;100207.75;;;6.91;61.51
7200;BME280;3641;49.082;8.200;2023-04-20T06:00:36;100203.41;;;6.30;63.74
7200;BME280;3641;49.082;8.200;2023-04-20T06:03:02;100204.13;;;6.32;64.46
7200;BME280;3641;49.082;8.200;2023-04-20T06:05:29;100211.88;;;6.00;64.71
7200;BME280;3641;49.082;8.200;2023-04-20T06:07:55;100212.88;;;5.99;65.36
7200;BME280;3641;49.082;8.200;2023-04-20T06:10:22;100211.66;;;6.20;64.51
7200;BME280;3641;49.082;8.200;2023-04-20T06:12:48;100217.88;;;6.12;65.44
7200;BME280;3641;49.082;8.200;2023-04-20T06:15:16;100212.78;;;6.35;64.50
7200;BME280;3641;49.082;8.200;2023-04-20T06:17:43;100208.72;;;6.40;64.90
7200;BME280;3641;49.082;8.200;2023-04-20T06:20:09;100207.34;;;6.09;64.89
7200;BME280;3641;49.082;8.200;2023-04-20T06:22:41;100202.44;;;6.39;64.37
7200;BME280;3641;49.082;8.200;2023-04-20T06:25:08;100200.69;;;6.56;63.73
7200;BME280;3641;49.082;8.200;2023-04-20T06:27:35;100197.34;;;6.36;63.95
7200;BME280;3641;49.082;8.200;2023-04-20T06:30:02;100199.25;;;6.44;63.93
7200;BME280;3641;49.082;8.200;2023-04-20T06:32:30;100194.31;;;6.39;64.58
7200;BME280;3641;49.082;8.200;2023-04-20T06:34:56;100193.50;;;6.47;64.45
7200;BME280;3641;49.082;8.200;2023-04-20T06:37:23;100196.94;;;6.57;64.34
7200;BME280;3641;49.082;8.200;2023-04-20T06:39:52;100199.00;;;6.63;63.95
7200;BME280;3641;49.082;8.200;2023-04-20T06:42:18;100194.78;;;6.61;64.24
7200;BME280;3641;49.082;8.200;2023-04-20T06:44:45;100187.34;;;6.71;63.71
7200;BME280;3641;49.082;8.200;2023-04-20T06:47:11;100187.38;;;6.87;63.08
7200;BME280;3641;49.082;8.200;2023-04-20T06:49:39;100179.72;;;6.75;63.68
7200;BME280;3641;49.082;8.200;2023-04-20T06:52:05;100181.59;;;6.82;64.58
7200;BME280;3641;49.082;8.200;2023-04-20T06:54:32;100187.88;;;6.83;63.72
7200;BME280;3641;49.082;8.200;2023-04-20T06:56:59;100180.63;;;6.91;63.83
7200;BME280;3641;49.082;8.200;2023-04-20T06:59:25;100185.06;;;7.09;63.75
7200;BME280;3641;49.082;8.200;2023-04-20T07:01:51;100176.59;;;7.04;63.21
7200;BME280;3641;49.082;8.200;2023-04-20T07:04:18;100176.91;;;7.01;63.34
7200;BME280;3641;49.082;8.200;2023-04-20T07:06:46;100175.22;;;7.16;63.44
7200;BME280;3641;49.082;8.200;2023-04-20T07:09:13;100187.63;;;7.27;63.31
7200;BME280;3641;49.082;8.200;2023-04-20T07:11:39;100181.53;;;7.25;63.56
7200;BME280;3641;49.082;8.200;2023-04-20T07:14:06;100176.94;;;7.34;63.34
7200;BME280;3641;49.082;8.200;2023-04-20T07:16:32;100173.88;;;7.37;63.13
7200;BME280;3641;49.082;8.200;2023-04-20T07:18:59;100176.59;;;7.37;63.52
7200;BME280;3641;49.082;8.200;2023-04-20T07:21:25;100173.56;;;7.48;63.11
7200;BME280;3641;49.082;8.200;2023-04-20T07:23:53;100172.38;;;7.42;63.19
7200;BME280;3641;49.082;8.200;2023-04-20T07:26:20;100176.63;;;7.53;63.72
7200;BME280;3641;49.082;8.200;2023-04-20T07:28:47;100163.56;;;7.57;63.31
7200;BME280;3641;49.082;8.200;2023-04-20T07:31:13;100168.47;;;7.70;62.50
7200;BME280;3641;49.082;8.200;2023-04-20T07:33:40;100166.06;;;7.75;63.03
7200;BME280;3641;49.082;8.200;2023-04-20T07:36:06;100165.06;;;7.76;62.80
7200;BME280;3641;49.082;8.200;2023-04-20T07:38:33;100160.47;;;7.85;62.69
7200;BME280;3641;49.082;8.200;2023-04-20T07:41:01;100159.13;;;7.80;63.01
7200;BME280;3641;49.082;8.200;2023-04-20T07:43:28;100161.16;;;7.87;63.11
7200;BME280;3641;49.082;8.200;2023-04-20T07:45:54;100153.66;;;7.97;62.33
7200;BME280;3641;49.082;8.200;2023-04-20T07:48:21;100155.34;;;7.98;62.58
7200;BME280;3641;49.082;8.200;2023-04-20T07:50:47;100154.47;;;7.97;62.11
7200;BME280;3641;49.082;8.200;2023-04-20T07:53:14;100151.41;;;8.09;62.20
7200;BME280;3641;49.082;8.200;2023-04-20T07:55:40;100154.44;;;8.22;62.41
7200;BME280;3641;49.082;8.200;2023-04-20T07:58:08;100150.88;;;8.13;61.42
7200;BME280;3641;49.082;8.200;2023-04-20T08:00:34;100154.75;;;8.27;61.73
7200;BME280;3641;49.082;8.200;2023-04-20T08:03:01;100144.22;;;8.24;61.13
7200;BME280;3641;49.082;8.200;2023-04-20T08:05:27;100143.69;;;8.29;61.74
7200;BME280;3641;49.082;8.200;2023-04-20T08:07:54;100149.75;;;8.39;61.87
7200;BME280;3641;49.082;8.200;2023-04-20T08:10:20;100141.78;;;8.37;60.95
7200;BME280;3641;49.082;8.200;2023-04-20T08:12:47;100139.78;;;8.31;60.94
7200;BME280;3641;49.082;8.200;2023-04-20T08:15:14;100130.94;;;8.46;61.24
7200;BME280;3641;49.082;8.200;2023-04-20T08:17:41;100132.06;;;8.51;60.60
7200;BME280;3641;49.082;8.200;2023-04-20T08:20:08;100128.53;;;8.43;60.23
7200;BME280;3641;49.082;8.200;2023-04-20T08:22:35;100131.75;;;8.46;60.50
7200;BME280;3641;49.082;8.200;2023-04-20T08:25:01;100124.41;;;8.55;61.47
7200;BME280;3641;49.082;8.200;2023-04-20T08:27:28;100118.94;;;8.63;61.45
7200;BME280;3641;49.082;8.200;2023-04-20T08:29:55;100130.00;;;8.62;61.29
7200;BME280;3641;49.082;8.200;2023-04-20T08:32:23;100129.47;;;8.58;60.94
7200;BME280;3641;49.082;8.200;2023-04-20T08:34:50;100123.16;;;8.66;61.23
7200;BME280;3641;49.082;8.200;2023-04-20T08:37:20;100113.16;;;8.58;60.72
7200;BME280;3641;49.082;8.200;2023-04-20T08:39:47;100112.84;;;8.84;59.96
7200;BME280;3641;49.082;8.200;2023-04-20T08:42:13;100113.09;;;8.98;60.40
7200;BME280;3641;49.082;8.200;2023-04-20T08:44:41;100106.78;;;8.74;59.66
7200;BME280;3641;49.082;8.200;2023-04-20T08:47:08;100104.88;;;8.83;60.67
7200;BME280;3641;49.082;8.200;2023-04-20T08:49:37;100095.09;;;8.97;59.79
7200;BME280;3641;49.082;8.200;2023-04-20T08:52:04;100101.91;;;9.16;59.96
7200;BME280;3641;49.082;8.200;2023-04-20T08:54:31;100104.88;;;9.06;59.58
7200;BME280;3641;49.082;8.200;2023-04-20T08:56:58;100104.06;;;9.20;60.03
7200;BME280;3641;49.082;8.200;2023-04-20T08:59:26;100104.03;;;9.05;59.64
7200;BME280;3641;49.082;8.200;2023-04-20T09:01:53;100106.88;;;9.12;59.77
7200;BME280;3641;49.082;8.200;2023-04-20T09:04:20;100110.63;;;9.11;59.56
7200;BME280;3641;49.082;8.200;2023-04-20T09:06:50;100104.94;;;8.98;58.24
7200;BME280;3641;49.082;8.200;2023-04-20T09:09:18;100099.34;;;9.14;58.88
7200;BME280;3641;49.082;8.200;2023-04-20T09:11:46;100094.88;;;9.21;59.57
7200;BME280;3641;49.082;8.200;2023-04-20T09:14:14;100092.09;;;9.30;59.47
7200;BME280;3641;49.082;8.200;2023-04-20T09:16:52;100091.75;;;9.48;59.68
7200;BME280;3641;49.082;8.200;2023-04-20T09:19:21;100096.00;;;9.65;59.21
7200;BME280;3641;49.082;8.200;2023-04-20T09:21:51;100094.25;;;9.72;58.73
7200;BME280;3641;49.082;8.200;2023-04-20T09:24:19;100093.88;;;9.75;59.99
7200;BME280;3641;49.082;8.200;2023-04-20T09:26:46;100094.72;;;9.76;59.55
7200;BME280;3641;49.082;8.200;2023-04-20T09:29:15;100091.00;;;9.54;59.16
7200;BME280;3641;49.082;8.200;2023-04-20T09:31:42;100089.16;;;9.69;59.91
7200;BME280;3641;49.082;8.200;2023-04-20T09:34:08;100070.47;;;9.81;59.45
7200;BME280;3641;49.082;8.200;2023-04-20T09:36:36;100073.84;;;9.98;59.12
7200;BME280;3641;49.082;8.200;2023-04-20T09:39:07;100075.47;;;10.07;58.43
7200;BME280;3641;49.082;8.200;2023-04-20T09:41:34;100074.91;;;10.12;58.85
7200;BME280;3641;49.082;8.200;2023-04-20T09:44:01;100066.16;;;10.16;57.49
7200;BME280;3641;49.082;8.200;2023-04-20T09:46:29;100063.88;;;10.20;57.43
7200;BME280;3641;49.082;8.200;2023-04-20T09:48:57;100065.16;;;10.24;56.87
7200;BME280;3641;49.082;8.200;2023-04-20T09:51:25;100051.72;;;10.23;57.47
7200;BME280;3641;49.082;8.200;2023-04-20T09:53:54;100053.72;;;10.44;57.93
7200;BME280;3641;49.082;8.200;2023-04-20T09:56:22;100053.84;;;10.57;57.57
7200;BME280;3641;49.082;8.200;2023-04-20T09:58:49;100053.81;;;10.72;56.41
7200;BME280;3641;49.082;8.200;2023-04-20T10:01:16;100057.06;;;10.82;56.30
7200;BME280;3641;49.082;8.200;2023-04-20T10:03:43;100047.75;;;10.77;56.41
7200;BME280;3641;49.082;8.200;2023-04-20T10:06:20;100049.28;;;10.79;56.67
7200;BME280;3641;49.082;8.200;2023-04-20T10:08:47;100046.59;;;10.86;55.42
7200;BME280;3641;49.082;8.200;2023-04-20T10:11:27;100045.44;;;10.95;55.32
7200;BME280;3641;49.082;8.200;2023-04-20T10:13:54;100050.06;;;10.95;57.55
7200;BME280;3641;49.082;8.200;2023-04-20T10:16:21;100044.78;;;10.93;54.88
7200;BME280;3641;49.082;8.200;2023-04-20T10:18:58;100042.81;;;11.08;52.99
7200;BME280;3641;49.082;8.200;2023-04-20T10:21:25;100034.06;;;10.92;53.90
7200;BME280;3641;49.082;8.200;2023-04-20T10:23:52;100027.28;;;11.09;52.98
7200;BME280;3641;49.082;8.200;2023-04-20T10:26:19;100025.91;;;11.20;57.05
7200;BME280;3641;49.082;8.200;2023-04-20T10:28:47;100022.31;;;11.19;56.58
7200;BME280;3641;49.082;8.200;2023-04-20T10:31:14;100010.44;;;11.05;54.34
7200;BME280;3641;49.082;8.200;2023-04-20T10:33:51;100013.50;;;10.96;56.01
7200;BME280;3641;49.082;8.200;2023-04-20T10:36:26;100016.91;;;10.98;56.10
7200;BME280;3641;49.082;8.200;2023-04-20T10:38:53;100025.19;;;10.89;56.73
7200;BME280;3641;49.082;8.200;2023-04-20T10:41:20;100016.06;;;10.76;56.32
7200;BME280;3641;49.082;8.200;2023-04-20T10:43:48;100020.09;;;10.58;56.41
7200;BME280;3641;49.082;8.200;2023-04-20T10:46:15;100013.03;;;10.49;56.50
7200;BME280;3641;49.082;8.200;2023-04-20T10:48:49;100017.19;;;10.45;56.92
7200;BME280;3641;49.082;8.200;2023-04-20T10:51:16;100018.38;;;10.35;56.84
7200;BME280;3641;49.082;8.200;2023-04-20T10:53:43;100011.66;;;10.38;58.34
7200;BME280;3641;49.082;8.200;2023-04-20T10:56:10;100013.75;;;10.58;59.04
7200;BME280;3641;49.082;8.200;2023-04-20T10:58:36;100005.09;;;10.32;55.71
7200;BME280;3641;49.082;8.200;2023-04-20T11:01:05;100006.38;;;10.51;56.64
7200;BME280;3641;49.082;8.200;2023-04-20T11:03:32;100003.84;;;10.35;56.39
7200;BME280;3641;49.082;8.200;2023-04-20T11:05:59;99995.94;;;10.25;56.21
7200;BME280;3641;49.082;8.200;2023-04-20T11:08:38;99999.25;;;10.35;56.23
7200;BME280;3641;49.082;8.200;2023-04-20T11:11:04;99994.59;;;10.51;58.02
7200;BME280;3641;49.082;8.200;2023-04-20T11:13:31;99995.88;;;10.33;56.53
7200;BME280;3641;49.082;8.200;2023-04-20T11:15:59;99994.44;;;10.38;56.62
7200;BME280;3641;49.082;8.200;2023-04-20T11:18:27;99987.97;;;10.24;54.90
7200;BME280;3641;49.082;8.200;2023-04-20T11:20:54;99988.03;;;10.30;56.39
7200;BME280;3641;49.082;8.200;2023-04-20T11:23:22;99987.88;;;10.17;55.01
7200;BME280;3641;49.082;8.200;2023-04-20T11:25:53;99991.19;;;10.12;54.83
7200;BME280;3641;49.082;8.200;2023-04-20T11:28:21;99999.25;;;10.21;55.45
7200;BME280;3641;49.082;8.200;2023-04-20T11:30:48;99989.88;;;10.08;57.17
7200;BME280;3641;49.082;8.200;2023-04-20T11:33:23;100008.53;;;9.90;58.70
7200;BME280;3641;49.082;8.200;2023-04-20T11:35:53;100008.22;;;9.99;60.59
7200;BME280;3641;49.082;8.200;2023-04-20T11:38:26;100007.41;;;9.99;60.77
7200;BME280;3641;49.082;8.200;2023-04-20T11:40:52;100002.31;;;9.81;61.62
7200;BME280;3641;49.082;8.200;2023-04-20T11:43:20;100004.75;;;9.76;60.87
7200;BME280;3641;49.082;8.200;2023-04-20T11:45:46;100002.22;;;9.74;60.81
7200;BME280;3641;49.082;8.200;2023-04-20T11:48:13;99997.84;;;9.73;61.76
7200;BME280;3641;49.082;8.200;2023-04-20T11:50:39;99997.22;;;10.08;60.83
7200;BME280;3641;49.082;8.200;2023-04-20T11:53:08;99993.06;;;10.12;60.31
7200;BME280;3641;49.082;8.200;2023-04-20T11:55:39;99986.03;;;10.03;59.54
7200;BME280;3641;49.082;8.200;2023-04-20T11:58:05;99986.94;;;10.25;60.60
7200;BME280;3641;49.082;8.200;2023-04-20T12:00:32;99985.91;;;10.11;59.30
7200;BME280;3641;49.082;8.200;2023-04-20T12:02:58;99992.97;;;10.20;59.22
7200;BME280;3641;49.082;8.200;2023-04-20T12:05:27;99989.59;;;10.18;58.68
7200;BME280;3641;49.082;8.200;2023-04-20T12:07:53;99986.03;;;10.03;58.46
7200;BME280;3641;49.082;8.200;2023-04-20T12:10:21;99980.28;;;10.12;58.28
7200;BME280;3641;49.082;8.200;2023-04-20T12:12:48;99983.81;;;10.28;59.75
7200;BME280;3641;49.082;8.200;2023-04-20T12:15:14;99980.91;;;10.29;58.78
7200;BME280;3641;49.082;8.200;2023-04-20T12:17:41;99974.09;;;10.40;59.12
7200;BME280;3641;49.082;8.200;2023-04-20T12:20:08;99987.94;;;10.39;58.45
7200;BME280;3641;49.082;8.200;2023-04-20T12:22:36;99974.53;;;10.37;58.31
7200;BME280;3641;49.082;8.200;2023-04-20T12:25:03;99972.25;;;10.41;58.63
7200;BME280;3641;49.082;8.200;2023-04-20T12:27:31;99974.38;;;10.30;57.13
7200;BME280;3641;49.082;8.200;2023-04-20T12:29:58;99973.19;;;10.54;57.81
7200;BME280;3641;49.082;8.200;2023-04-20T12:32:24;99974.06;;;10.55;58.71
7200;BME280;3641;49.082;8.200;2023-04-20T12:34:51;99974.72;;;10.35;56.64
7200;BME280;3641;49.082;8.200;2023-04-20T12:37:18;99984.41;;;10.23;61.90
7200;BME280;3641;49.082;8.200;2023-04-20T12:39:45;99976.41;;;10.22;63.76
7200;BME280;3641;49.082;8.200;2023-04-20T12:42:11;99974.81;;;10.12;62.50
7200;BME280;3641;49.082;8.200;2023-04-20T12:44:39;99977.09;;;10.09;63.48
7200;BME280;3641;49.082;8.200;2023-04-20T12:47:05;99988.56;;;10.04;62.96
7200;BME280;3641;49.082;8.200;2023-04-20T12:49:32;99987.09;;;9.87;59.93
7200;BME280;3641;49.082;8.200;2023-04-20T12:51:59;99978.56;;;9.75;62.32
7200;BME280;3641;49.082;8.200;2023-04-20T12:54:25;99977.97;;;9.79;60.56
7200;BME280;3641;49.082;8.200;2023-04-20T12:56:52;99974.28;;;10.02;61.99
7200;BME280;3641;49.082;8.200;2023-04-20T12:59:18;99976.72;;;9.97;61.46
7200;BME280;3641;49.082;8.200;2023-04-20T13:01:46;99966.88;;;9.96;61.50
7200;BME280;3641;49.082;8.200;2023-04-20T13:04:12;99965.72;;;10.05;61.95
7200;BME280;3641;49.082;8.200;2023-04-20T13:06:39;99968.16;;;10.15;61.23
7200;BME280;3641;49.082;8.200;2023-04-20T13:09:06;99967.03;;;10.09;61.02
7200;BME280;3641;49.082;8.200;2023-04-20T13:11:33;99969.94;;;10.08;60.07
7200;BME280;3641;49.082;8.200;2023-04-20T13:13:59;99958.50;;;9.97;60.55
7200;BME280;3641;49.082;8.200;2023-04-20T13:16:26;99970.50;;;10.03;60.63
7200;BME280;3641;49.082;8.200;2023-04-20T13:18:54;99971.75;;;9.86;60.83